Aviation Digital Data Service (ADDS)

Output produced by TAFs form (1148 UTC 27 May 2017)
found at http://www.aviationweather.gov/adds/tafs/
 
METAR text: RORS 271000Z 06016KT 9999 SCT023 BKN060 25/19 Q1011
Conditions at: RORS (SHIMOJI-SHIMA IS, JP) observed 1000 UTC 27 May 2017
Temperature: 25.0°C (77°F)
Dewpoint: 19.0°C (66°F) [RH = 69%]
Pressure (altimeter): 29.85 inches Hg (1011.0 mb)
Winds: from the ENE (60 degrees) at 18 MPH (16 knots; 8.3 m/s)
Visibility: 6 or more miles (10+ km)
Ceiling: 6000 feet AGL
Clouds: scattered clouds at 2300 feet AGL
broken clouds at 6000 feet AGL
Weather: no significant weather observed at this time